Time;durP1;ratioP1;P1;durP2;ratioP2;P2;SDS_P1;SDS_P2;PMS_P1;PMS_P2;Temp;Humidity;BMP_temperature;BMP_pressure;BME280_temperature;BME280_humidity;BME280_pressure;Samples;Min_cycle;Max_cycle;Signal;HPM_P1;HPM_P2
2021/11/26 00:02:00;;;;;;;;;;;1.10;99.90;;;;;;8402740;28;19915;-67
2021/11/26 00:06:01;;;;;;;;;;;1.10;99.90;;;;;;8381960;28;19916;-67
2021/11/26 00:10:02;;;;;;;;;;;1.00;99.90;;;;;;8397478;28;19913;-67
2021/11/26 00:14:14;;;;;;;;;;;1.00;99.90;;;;;;8397082;28;19955;-67
2021/11/26 00:18:19;;;;;;;;;;;1.00;99.90;;;;;;8379815;28;19909;-67
2021/11/26 00:22:19;;;;;;;;;;;1.00;99.90;;;;;;8397369;28;19944;-67
2021/11/26 00:26:20;;;;;;;;;;;0.90;99.90;;;;;;8397380;28;19916;-67
2021/11/26 00:30:21;;;;;;;;;;;0.80;99.90;;;;;;8396789;28;19913;-67
2021/11/26 00:34:21;;;;;;;;;;;0.80;99.90;;;;;;8397204;28;19915;-67
2021/11/26 00:38:22;;;;;;;;;;;0.90;99.90;;;;;;8397055;28;19908;-66
2021/11/26 00:42:22;;;;;;;;;;;1.00;99.90;;;;;;8396779;28;19908;-67
2021/11/26 00:46:23;;;;;;;;;;;0.90;99.90;;;;;;8378706;28;19913;-67
2021/11/26 00:50:23;;;;;;;;;;;1.00;99.90;;;;;;8396151;28;19912;-68
2021/11/26 00:54:24;;;;;;;;;;;0.90;99.90;;;;;;8396236;28;19912;-66
2021/11/26 00:58:24;;;;;;;;;;;0.90;99.90;;;;;;8377986;28;19920;-67
2021/11/26 01:02:25;;;;;;;;;;;0.90;99.90;;;;;;8396025;28;19908;-66
2021/11/26 01:06:25;;;;;;;;;;;0.90;99.90;;;;;;8396355;28;19956;-67
2021/11/26 01:10:26;;;;;;;;;;;1.00;99.90;;;;;;8376899;28;20015;-67
2021/11/26 01:14:26;;;;;;;;;;;0.90;99.90;;;;;;8395777;28;19912;-66
2021/11/26 01:18:27;;;;;;;;;;;0.90;99.90;;;;;;8395526;28;19936;-67
2021/11/26 01:22:27;;;;;;;;;;;0.90;99.90;;;;;;8395755;28;20307;-66
2021/11/26 01:26:28;;;;;;;;;;;0.90;99.90;;;;;;8395050;28;19908;-67
2021/11/26 01:30:35;;;;;;;;;;;0.80;99.90;;;;;;8394845;28;20417;-67
2021/11/26 01:34:35;;;;;;;;;;;1.00;99.90;;;;;;8395107;28;20297;-67
2021/11/26 01:38:36;;;;;;;;;;;1.00;99.90;;;;;;8394899;28;19917;-66
2021/11/26 01:42:36;;;;;;;;;;;1.00;99.90;;;;;;8376929;28;19913;-67
2021/11/26 01:46:43;;;;;;;;;;;1.00;99.90;;;;;;8376818;28;19912;-67
2021/11/26 01:50:44;;;;;;;;;;;1.00;99.90;;;;;;8393163;28;19973;-67
2021/11/26 01:54:44;;;;;;;;;;;0.90;99.90;;;;;;8375048;28;19934;-67
2021/11/26 01:58:45;;;;;;;;;;;0.80;99.90;;;;;;8394000;28;19927;-67
2021/11/26 02:02:45;;;;;;;;;;;0.90;99.90;;;;;;8394317;28;19909;-67
2021/11/26 02:06:46;;;;;;;;;;;0.90;99.90;;;;;;8376103;28;20271;-67
2021/11/26 02:10:46;;;;;;;;;;;0.80;99.90;;;;;;8393065;28;19964;-67
2021/11/26 02:14:47;;;;;;;;;;;0.80;99.90;;;;;;8394003;28;19954;-67
2021/11/26 02:18:48;;;;;;;;;;;0.80;99.90;;;;;;8388532;28;20872;-67
2021/11/26 02:22:49;;;;;;;;;;;0.70;99.90;;;;;;8390841;28;19976;-67
2021/11/26 02:26:50;;;;;;;;;;;0.60;99.90;;;;;;8393415;28;20366;-66
2021/11/26 02:30:50;;;;;;;;;;;0.70;99.90;;;;;;8392740;28;19999;-66
2021/11/26 02:34:54;;;;;;;;;;;1.00;99.90;;;;;;8393482;28;19912;-67
2021/11/26 02:38:54;;;;;;;;;;;0.80;99.90;;;;;;8393013;28;19970;-67
2021/11/26 02:42:55;;;;;;;;;;;0.90;99.90;;;;;;8393382;28;20378;-66
2021/11/26 02:46:56;;;;;;;;;;;0.90;99.90;;;;;;8393225;28;19915;-67
2021/11/26 02:50:56;;;;;;;;;;;0.70;99.90;;;;;;8392568;28;20370;-67
2021/11/26 02:54:57;;;;;;;;;;;0.80;99.90;;;;;;8392776;28;19970;-67
2021/11/26 02:58:57;;;;;;;;;;;0.80;99.90;;;;;;8392874;28;19916;-67
2021/11/26 03:02:58;;;;;;;;;;;0.70;99.90;;;;;;8393002;28;19998;-67
2021/11/26 03:07:05;;;;;;;;;;;0.80;99.90;;;;;;8374978;28;19991;-67
2021/11/26 03:11:06;;;;;;;;;;;0.70;99.90;;;;;;8392404;28;20342;-67
2021/11/26 03:15:06;;;;;;;;;;;0.80;99.90;;;;;;8392801;28;19913;-67
2021/11/26 03:19:07;;;;;;;;;;;0.70;99.90;;;;;;8392667;28;19913;-66
2021/11/26 03:23:07;;;;;;;;;;;0.80;99.90;;;;;;8391959;28;19915;-67
2021/11/26 03:27:08;;;;;;;;;;;0.80;99.90;;;;;;8392432;28;19991;-66
2021/11/26 03:31:08;;;;;;;;;;;0.80;99.90;;;;;;8392422;28;19920;-66
2021/11/26 03:35:09;;;;;;;;;;;0.70;99.90;;;;;;8392630;28;20388;-67
2021/11/26 03:39:09;;;;;;;;;;;0.80;99.90;;;;;;8374971;28;19915;-66
2021/11/26 03:43:09;;;;;;;;;;;0.60;99.90;;;;;;8397200;28;20000;-67
2021/11/26 03:47:10;;;;;;;;;;;0.80;99.90;;;;;;8398447;28;20289;-67
2021/11/26 03:51:11;;;;;;;;;;;0.70;99.90;;;;;;8397885;28;19913;-67
2021/11/26 03:55:13;;;;;;;;;;;0.60;99.90;;;;;;8397978;28;20416;-67
2021/11/26 03:59:14;;;;;;;;;;;0.60;99.90;;;;;;8403375;22;19995;-67
2021/11/26 04:03:14;;;;;;;;;;;0.70;99.90;;;;;;8361934;28;19913;-68
2021/11/26 04:07:15;;;;;;;;;;;0.70;99.90;;;;;;8346998;28;19951;-68
2021/11/26 04:11:15;;;;;;;;;;;0.70;99.90;;;;;;8346110;28;19986;-67
2021/11/26 04:15:17;;;;;;;;;;;0.70;99.90;;;;;;8346204;28;19962;-67
2021/11/26 04:19:17;;;;;;;;;;;0.80;99.90;;;;;;8348758;28;19913;-68
2021/11/26 04:23:18;;;;;;;;;;;0.70;99.90;;;;;;8344738;28;20004;-68
2021/11/26 04:27:18;;;;;;;;;;;0.70;99.90;;;;;;8344044;28;19963;-68
2021/11/26 04:31:19;;;;;;;;;;;0.70;99.90;;;;;;8346529;28;20490;-68
2021/11/26 04:35:20;;;;;;;;;;;0.70;99.90;;;;;;8347908;28;19920;-68
2021/11/26 04:39:21;;;;;;;;;;;0.70;99.90;;;;;;8346497;28;19928;-68
2021/11/26 04:43:23;;;;;;;;;;;0.60;99.90;;;;;;8346839;28;19909;-68
2021/11/26 04:47:23;;;;;;;;;;;0.60;99.90;;;;;;8344626;28;19913;-67
2021/11/26 04:51:24;;;;;;;;;;;0.60;99.90;;;;;;8355152;28;20361;-68
2021/11/26 04:55:24;;;;;;;;;;;0.70;99.90;;;;;;8341213;28;20302;-68
2021/11/26 04:59:25;;;;;;;;;;;0.60;99.90;;;;;;8329359;28;19924;-68
2021/11/26 05:03:25;;;;;;;;;;;0.70;99.90;;;;;;8352066;28;19913;-68
2021/11/26 05:07:26;;;;;;;;;;;0.70;99.90;;;;;;8333471;28;20399;-67
2021/11/26 05:11:26;;;;;;;;;;;0.60;99.90;;;;;;8358504;28;19923;-68
2021/11/26 05:15:28;;;;;;;;;;;0.60;99.90;;;;;;8357600;28;19959;-68
2021/11/26 05:19:28;;;;;;;;;;;0.70;99.90;;;;;;8358596;28;20409;-68
2021/11/26 05:23:28;;;;;;;;;;;0.70;99.90;;;;;;8354502;28;19917;-68
2021/11/26 05:27:29;;;;;;;;;;;0.70;99.90;;;;;;8332131;28;19917;-68
2021/11/26 05:31:35;;;;;;;;;;;0.70;99.90;;;;;;8326849;28;19923;-68
2021/11/26 05:35:36;;;;;;;;;;;0.60;99.90;;;;;;8327698;28;19949;-68
2021/11/26 05:39:36;;;;;;;;;;;0.70;99.90;;;;;;8330968;28;19913;-68
2021/11/26 05:43:36;;;;;;;;;;;0.70;99.90;;;;;;8352986;28;19916;-68
2021/11/26 05:47:37;;;;;;;;;;;0.70;99.90;;;;;;8349062;28;19913;-67
2021/11/26 05:51:37;;;;;;;;;;;0.80;99.90;;;;;;8346059;28;19923;-67
2021/11/26 05:55:38;;;;;;;;;;;0.60;99.90;;;;;;8341431;28;19913;-67
2021/11/26 05:59:38;;;;;;;;;;;0.40;99.90;;;;;;8346247;28;20319;-67
2021/11/26 06:03:39;;;;;;;;;;;0.40;99.90;;;;;;8334671;28;19920;-67
2021/11/26 06:07:40;;;;;;;;;;;0.40;99.90;;;;;;8346051;28;19917;-67
2021/11/26 06:11:40;;;;;;;;;;;0.40;99.90;;;;;;8327854;28;19913;-67
2021/11/26 06:15:40;;;;;;;;;;;0.40;99.90;;;;;;8327340;28;19916;-66
2021/11/26 06:19:41;;;;;;;;;;;0.40;99.90;;;;;;8347791;28;19913;-67
2021/11/26 06:23:41;;;;;;;;;;;0.50;99.90;;;;;;8350672;28;19943;-66
2021/11/26 06:27:42;;;;;;;;;;;0.50;99.90;;;;;;8348947;28;20310;-67
2021/11/26 06:31:43;;;;;;;;;;;0.50;99.90;;;;;;8358465;28;20409;-67
2021/11/26 06:35:43;;;;;;;;;;;0.60;99.90;;;;;;8359962;28;19909;-67
2021/11/26 06:39:43;;;;;;;;;;;0.50;99.90;;;;;;8349975;28;20011;-68
2021/11/26 06:43:44;;;;;;;;;;;0.40;99.90;;;;;;8339994;28;19917;-67
2021/11/26 06:47:46;;;;;;;;;;;0.40;99.90;;;;;;8346985;28;19912;-67
2021/11/26 06:51:46;;;;;;;;;;;0.50;99.90;;;;;;8349112;28;19948;-67
2021/11/26 06:55:47;;;;;;;;;;;0.50;99.90;;;;;;8345356;28;19912;-66
2021/11/26 06:59:48;;;;;;;;;;;0.50;99.90;;;;;;8352392;28;20430;-67
2021/11/26 07:03:48;;;;;;;;;;;0.50;99.90;;;;;;8333471;28;19967;-66
2021/11/26 07:07:49;;;;;;;;;;;0.50;99.90;;;;;;8343923;28;19913;-67
2021/11/26 07:11:49;;;;;;;;;;;0.40;99.90;;;;;;8335490;28;19968;-66
2021/11/26 07:15:50;;;;;;;;;;;0.30;99.90;;;;;;8368601;28;20291;-66
2021/11/26 07:19:50;;;;;;;;;;;0.50;99.90;;;;;;8347044;28;20425;-66
2021/11/26 07:23:51;;;;;;;;;;;0.50;99.90;;;;;;8346101;28;20294;-66
2021/11/26 07:27:51;;;;;;;;;;;0.40;99.90;;;;;;8348462;28;19914;-66
2021/11/26 07:31:52;;;;;;;;;;;0.40;99.90;;;;;;8345696;28;19917;-66
2021/11/26 07:35:52;;;;;;;;;;;0.60;99.90;;;;;;8351943;28;19928;-66
2021/11/26 07:39:53;;;;;;;;;;;0.50;99.90;;;;;;8343508;28;19948;-66
2021/11/26 07:43:53;;;;;;;;;;;0.40;99.90;;;;;;8344214;28;20379;-66
2021/11/26 07:47:54;;;;;;;;;;;0.50;99.90;;;;;;8345377;28;19909;-65
2021/11/26 07:51:56;;;;;;;;;;;0.50;99.90;;;;;;8348382;28;19925;-66
2021/11/26 07:55:56;;;;;;;;;;;0.40;99.90;;;;;;8346884;28;20394;-66
2021/11/26 07:59:56;;;;;;;;;;;0.40;99.90;;;;;;8343186;28;19917;-66
2021/11/26 08:03:57;;;;;;;;;;;0.60;99.90;;;;;;8337534;28;19920;-66
2021/11/26 08:07:58;;;;;;;;;;;0.60;99.90;;;;;;8355302;28;19913;-66
2021/11/26 08:11:59;;;;;;;;;;;0.70;99.90;;;;;;8346643;28;20337;-66
2021/11/26 08:15:59;;;;;;;;;;;1.10;99.90;;;;;;8340280;28;19967;-66
2021/11/26 08:20:00;;;;;;;;;;;1.10;99.90;;;;;;8348863;28;20436;-66
2021/11/26 08:24:01;;;;;;;;;;;1.30;99.90;;;;;;8343244;28;19909;-66
2021/11/26 08:28:02;;;;;;;;;;;1.30;99.90;;;;;;8347689;28;19921;-66
2021/11/26 08:32:04;;;;;;;;;;;1.40;99.90;;;;;;8354820;28;20452;-66
2021/11/26 08:36:04;;;;;;;;;;;1.50;99.90;;;;;;8363428;28;19908;-66
2021/11/26 08:40:06;;;;;;;;;;;1.70;99.90;;;;;;8363274;28;19916;-66
2021/11/26 08:44:06;;;;;;;;;;;1.90;99.90;;;;;;8350611;28;20458;-66
2021/11/26 08:48:07;;;;;;;;;;;1.80;99.90;;;;;;8338638;28;19967;-66
2021/11/26 08:52:08;;;;;;;;;;;1.60;99.90;;;;;;8361405;28;20379;-66
2021/11/26 08:56:08;;;;;;;;;;;1.80;99.90;;;;;;8345964;28;19956;-66
2021/11/26 09:00:09;;;;;;;;;;;1.70;99.90;;;;;;8344413;28;19924;-66
2021/11/26 09:04:11;;;;;;;;;;;1.60;99.90;;;;;;8350669;28;19917;-66
2021/11/26 09:08:15;;;;;;;;;;;1.70;99.90;;;;;;8332309;28;19917;-66
2021/11/26 09:12:16;;;;;;;;;;;1.70;99.90;;;;;;8343903;28;19959;-66
2021/11/26 09:16:16;;;;;;;;;;;1.80;99.90;;;;;;8344594;28;19913;-66
2021/11/26 09:20:17;;;;;;;;;;;1.70;99.90;;;;;;8339647;28;19913;-66
2021/11/26 09:24:17;;;;;;;;;;;1.90;99.90;;;;;;8343607;28;19919;-66
2021/11/26 09:28:18;;;;;;;;;;;1.80;99.90;;;;;;8347320;28;20268;-66
2021/11/26 09:32:19;;;;;;;;;;;1.80;99.90;;;;;;8342240;28;19920;-66
2021/11/26 09:36:21;;;;;;;;;;;2.10;99.90;;;;;;8349924;28;19917;-66
2021/11/26 09:40:21;;;;;;;;;;;2.30;99.90;;;;;;8350426;28;19913;-66
2021/11/26 09:44:23;;;;;;;;;;;2.40;99.90;;;;;;8344775;28;20004;-66
2021/11/26 09:48:23;;;;;;;;;;;2.40;99.90;;;;;;8343908;28;20379;-66
2021/11/26 09:52:24;;;;;;;;;;;2.50;99.90;;;;;;8344461;28;19920;-66
2021/11/26 09:56:24;;;;;;;;;;;2.60;99.90;;;;;;8346574;28;19960;-66
2021/11/26 10:00:25;;;;;;;;;;;2.70;99.90;;;;;;8389899;23;19932;-64
2021/11/26 10:04:26;;;;;;;;;;;2.70;99.90;;;;;;8375236;28;19939;-64
2021/11/26 10:08:26;;;;;;;;;;;2.60;99.90;;;;;;8375979;28;20049;-64
2021/11/26 10:12:27;;;;;;;;;;;2.40;99.90;;;;;;8388780;28;19924;-64
2021/11/26 10:16:27;;;;;;;;;;;2.40;99.90;;;;;;8384657;28;20006;-64
2021/11/26 10:20:28;;;;;;;;;;;2.30;99.90;;;;;;8366030;28;19908;-64
2021/11/26 10:24:28;;;;;;;;;;;2.40;99.90;;;;;;8374472;28;19919;-64
2021/11/26 10:28:36;;;;;;;;;;;2.50;99.90;;;;;;8371698;28;19916;-64
2021/11/26 10:32:36;;;;;;;;;;;2.60;99.90;;;;;;8359552;28;20393;-64
2021/11/26 10:36:44;;;;;;;;;;;2.70;99.90;;;;;;8365775;28;19921;-64
2021/11/26 10:40:49;;;;;;;;;;;2.80;99.90;;;;;;8386473;28;19917;-65
2021/11/26 10:44:55;;;;;;;;;;;2.90;99.90;;;;;;8390812;28;19912;-64
2021/11/26 10:57:38;;;;;;;;;;;3.30;99.90;;;;;;8388413;28;20065;-65
2021/11/26 11:01:43;;;;;;;;;;;3.60;99.90;;;;;;8383025;28;19955;-65
2021/11/26 11:05:44;;;;;;;;;;;3.40;99.90;;;;;;8386804;28;19962;-65
2021/11/26 11:09:45;;;;;;;;;;;3.20;99.90;;;;;;8371822;28;20007;-64
2021/11/26 11:13:45;;;;;;;;;;;2.70;99.90;;;;;;8391324;28;19943;-64
2021/11/26 11:17:47;;;;;;;;;;;2.40;99.90;;;;;;8373571;28;20355;-65
2021/11/26 11:21:49;;;;;;;;;;;2.20;99.90;;;;;;8372794;28;19913;-65
2021/11/26 11:25:49;;;;;;;;;;;2.10;99.90;;;;;;8375002;28;19909;-65
2021/11/26 11:29:50;;;;;;;;;;;1.90;99.90;;;;;;8340541;28;19921;-65
2021/11/26 11:33:52;;;;;;;;;;;2.10;99.90;;;;;;8340587;28;19939;-65
2021/11/26 11:37:53;;;;;;;;;;;2.10;99.90;;;;;;8382325;28;19917;-65
2021/11/26 11:41:57;;;;;;;;;;;2.00;99.90;;;;;;8363336;28;19913;-65
2021/11/26 11:46:03;;;;;;;;;;;1.90;99.90;;;;;;8390526;28;19921;-65
2021/11/26 11:50:11;;;;;;;;;;;2.10;99.90;;;;;;8387250;28;19916;-64
2021/11/26 11:54:12;;;;;;;;;;;1.90;99.90;;;;;;8363782;28;19963;-65
2021/11/26 11:58:26;;;;;;;;;;;1.80;99.90;;;;;;8374916;28;19912;-65
2021/11/26 12:02:27;;;;;;;;;;;1.70;99.90;;;;;;8391483;28;19913;-65
2021/11/26 12:06:41;;;;;;;;;;;1.90;99.90;;;;;;8380109;28;19912;-65
2021/11/26 12:10:49;;;;;;;;;;;2.00;99.90;;;;;;8396485;28;19924;-65
2021/11/26 12:14:54;;;;;;;;;;;2.00;99.90;;;;;;8395631;28;19912;-65
2021/11/26 12:18:55;;;;;;;;;;;2.10;99.90;;;;;;8392768;28;19912;-65
2021/11/26 12:22:59;;;;;;;;;;;2.10;99.90;;;;;;8375751;28;19913;-65
2021/11/26 12:27:00;;;;;;;;;;;2.20;99.90;;;;;;8383210;28;19939;-65
2021/11/26 12:31:06;;;;;;;;;;;2.10;99.90;;;;;;8367525;28;19921;-65
2021/11/26 12:35:11;;;;;;;;;;;2.20;99.90;;;;;;8385213;28;19965;-65
2021/11/26 12:39:16;;;;;;;;;;;2.30;99.90;;;;;;8354989;28;19909;-65
2021/11/26 12:43:17;;;;;;;;;;;2.00;99.90;;;;;;8379775;28;19912;-65
2021/11/26 12:47:19;;;;;;;;;;;2.10;99.90;;;;;;8378929;28;19969;-65
2021/11/26 12:51:19;;;;;;;;;;;2.40;99.90;;;;;;8395611;28;19912;-66
2021/11/26 12:55:20;;;;;;;;;;;2.30;99.90;;;;;;8363181;28;19916;-66
2021/11/26 12:59:39;;;;;;;;;;;2.20;99.90;;;;;;8392125;28;20302;-65
2021/11/26 13:03:44;;;;;;;;;;;2.10;99.90;;;;;;8385035;28;19921;-65
2021/11/26 13:07:45;;;;;;;;;;;2.30;99.90;;;;;;8384622;28;19912;-65
2021/11/26 13:11:47;;;;;;;;;;;2.40;99.90;;;;;;8390839;28;19916;-64
2021/11/26 13:15:48;;;;;;;;;;;2.30;99.90;;;;;;8393613;28;19920;-65
2021/11/26 13:19:56;;;;;;;;;;;2.40;99.90;;;;;;8383690;28;19958;-64
2021/11/26 13:23:56;;;;;;;;;;;2.30;99.90;;;;;;8393942;28;19975;-64
2021/11/26 13:28:01;;;;;;;;;;;2.40;99.90;;;;;;8390212;28;19920;-64
2021/11/26 13:32:02;;;;;;;;;;;2.40;99.90;;;;;;8387922;28;19916;-65
2021/11/26 13:36:09;;;;;;;;;;;2.40;99.90;;;;;;8394126;28;19974;-65
2021/11/26 13:40:10;;;;;;;;;;;2.30;99.90;;;;;;8390860;28;19940;-64
2021/11/26 13:44:12;;;;;;;;;;;2.30;99.90;;;;;;8378781;28;20705;-65
2021/11/26 13:48:12;;;;;;;;;;;2.40;99.90;;;;;;8375027;28;19924;-64
2021/11/26 13:52:13;;;;;;;;;;;2.30;99.90;;;;;;8385962;28;19950;-66
2021/11/26 13:56:13;;;;;;;;;;;2.20;99.90;;;;;;8366929;28;19943;-64
2021/11/26 14:00:15;;;;;;;;;;;2.20;99.90;;;;;;8376380;28;20046;-64
2021/11/26 14:04:20;;;;;;;;;;;2.10;99.90;;;;;;8358152;28;19917;-69
2021/11/26 14:08:21;;;;;;;;;;;2.10;99.90;;;;;;8393084;28;19956;-64
2021/11/26 14:12:24;;;;;;;;;;;2.10;99.90;;;;;;8391097;28;19916;-64
2021/11/26 14:16:25;;;;;;;;;;;2.00;99.90;;;;;;8390339;28;19908;-64
2021/11/26 14:20:26;;;;;;;;;;;1.90;99.90;;;;;;8367513;28;20594;-64
2021/11/26 14:24:34;;;;;;;;;;;2.00;99.90;;;;;;8376518;28;20062;-64
2021/11/26 14:28:35;;;;;;;;;;;1.90;99.90;;;;;;8360379;28;19940;-63
2021/11/26 14:32:37;;;;;;;;;;;1.90;99.90;;;;;;8383626;28;19951;-63
2021/11/26 14:36:38;;;;;;;;;;;1.90;99.90;;;;;;8392691;28;20013;-63
2021/11/26 14:40:40;;;;;;;;;;;1.80;99.90;;;;;;8391337;28;19962;-63
2021/11/26 14:44:43;;;;;;;;;;;1.90;99.90;;;;;;8392342;28;20462;-63
2021/11/26 14:48:49;;;;;;;;;;;1.90;99.90;;;;;;8392036;28;20440;-63
2021/11/26 14:52:49;;;;;;;;;;;1.80;99.90;;;;;;8386669;28;20391;-63
2021/11/26 14:56:50;;;;;;;;;;;1.90;99.90;;;;;;8368530;28;19920;-63
2021/11/26 15:00:51;;;;;;;;;;;1.80;99.90;;;;;;8360282;28;20552;-63
2021/11/26 15:04:52;;;;;;;;;;;1.80;99.90;;;;;;8364047;28;19909;-63
2021/11/26 15:08:55;;;;;;;;;;;1.70;99.90;;;;;;8377749;28;19913;-63
2021/11/26 15:12:55;;;;;;;;;;;1.60;99.90;;;;;;8371473;28;19927;-63
2021/11/26 15:16:56;;;;;;;;;;;1.70;99.90;;;;;;8370097;28;19927;-63
2021/11/26 15:20:57;;;;;;;;;;;1.60;99.90;;;;;;8388976;28;19912;-66
2021/11/26 15:24:57;;;;;;;;;;;1.60;99.90;;;;;;8367481;28;19924;-63
2021/11/26 15:28:58;;;;;;;;;;;1.60;99.90;;;;;;8389128;28;19912;-63
2021/11/26 15:32:58;;;;;;;;;;;1.60;99.90;;;;;;8387964;28;19917;-63
2021/11/26 15:36:59;;;;;;;;;;;1.60;99.90;;;;;;8361375;28;19923;-63
2021/11/26 15:40:59;;;;;;;;;;;1.60;99.90;;;;;;8371418;28;19913;-63
2021/11/26 15:45:00;;;;;;;;;;;1.60;99.90;;;;;;8358471;28;19913;-63
2021/11/26 15:49:01;;;;;;;;;;;1.60;99.90;;;;;;8371341;28;20702;-63
2021/11/26 15:53:02;;;;;;;;;;;1.60;99.90;;;;;;8393904;28;19916;-64
2021/11/26 15:57:02;;;;;;;;;;;1.50;99.90;;;;;;8370391;28;19920;-63
2021/11/26 16:01:03;;;;;;;;;;;1.50;99.90;;;;;;8395093;28;19960;-63
2021/11/26 16:05:04;;;;;;;;;;;1.60;99.90;;;;;;8384048;28;20352;-63
2021/11/26 16:09:05;;;;;;;;;;;1.60;99.90;;;;;;8379047;28;20462;-64
2021/11/26 16:13:05;;;;;;;;;;;1.60;99.90;;;;;;8359391;28;19936;-63
2021/11/26 16:17:06;;;;;;;;;;;1.50;99.90;;;;;;8387616;28;19917;-63
2021/11/26 16:21:06;;;;;;;;;;;1.50;99.90;;;;;;8386086;28;20019;-62
2021/11/26 16:25:07;;;;;;;;;;;1.40;99.90;;;;;;8385315;28;20012;-63
2021/11/26 16:29:09;;;;;;;;;;;1.50;99.90;;;;;;8383591;28;19921;-63
2021/11/26 16:33:19;;;;;;;;;;;1.50;99.90;;;;;;8386063;28;19924;-63
2021/11/26 16:37:21;;;;;;;;;;;1.50;99.90;;;;;;8370256;28;20475;-63
2021/11/26 16:41:22;;;;;;;;;;;1.50;99.90;;;;;;8370126;28;20531;-63
2021/11/26 16:45:23;;;;;;;;;;;1.50;99.90;;;;;;8391412;28;19916;-62
2021/11/26 16:49:24;;;;;;;;;;;1.40;99.90;;;;;;8388792;28;19954;-66
2021/11/26 16:53:26;;;;;;;;;;;1.50;99.90;;;;;;8387567;28;19920;-66
2021/11/26 16:57:27;;;;;;;;;;;1.60;99.90;;;;;;8364813;28;19919;-67
2021/11/26 17:01:27;;;;;;;;;;;1.60;99.90;;;;;;8374113;28;20295;-67
2021/11/26 17:05:29;;;;;;;;;;;1.50;99.90;;;;;;8358430;28;19912;-67
2021/11/26 17:09:29;;;;;;;;;;;1.60;99.90;;;;;;8357151;28;19924;-67
2021/11/26 17:13:29;;;;;;;;;;;1.60;99.90;;;;;;8373624;28;20494;-67
2021/11/26 17:17:30;;;;;;;;;;;1.60;99.90;;;;;;8364074;28;19916;-65
2021/11/26 17:21:31;;;;;;;;;;;1.60;99.90;;;;;;8387921;28;20711;-66
2021/11/26 17:25:31;;;;;;;;;;;1.50;99.90;;;;;;8363471;28;19924;-65
2021/11/26 17:29:32;;;;;;;;;;;1.50;99.90;;;;;;8389306;28;19919;-65
2021/11/26 17:33:33;;;;;;;;;;;1.60;99.90;;;;;;8384907;28;19920;-65
2021/11/26 17:37:34;;;;;;;;;;;1.60;99.90;;;;;;8379300;28;19970;-65
2021/11/26 17:41:34;;;;;;;;;;;1.50;99.90;;;;;;8357409;28;20421;-65
2021/11/26 17:45:35;;;;;;;;;;;1.60;99.90;;;;;;8372797;28;19920;-65
2021/11/26 17:49:37;;;;;;;;;;;1.50;99.90;;;;;;8372249;28;19920;-66
2021/11/26 17:53:37;;;;;;;;;;;1.40;99.90;;;;;;8388442;28;20638;-66
2021/11/26 17:57:38;;;;;;;;;;;1.40;99.90;;;;;;8389370;28;19962;-65
2021/11/26 18:01:38;;;;;;;;;;;1.50;99.90;;;;;;8386944;28;19917;-65
2021/11/26 18:05:44;;;;;;;;;;;1.50;99.90;;;;;;8357791;28;19917;-67
2021/11/26 18:09:57;;;;;;;;;;;1.40;99.90;;;;;;8355663;28;19920;-65
2021/11/26 18:13:58;;;;;;;;;;;1.30;99.90;;;;;;8370239;28;20361;-65
2021/11/26 18:17:59;;;;;;;;;;;1.40;99.90;;;;;;8344135;28;19943;-66
2021/11/26 18:22:00;;;;;;;;;;;1.30;99.90;;;;;;8385722;28;19927;-64
2021/11/26 18:26:01;;;;;;;;;;;1.40;99.90;;;;;;8382621;28;19916;-65
2021/11/26 18:30:02;;;;;;;;;;;1.30;99.90;;;;;;8377981;28;20345;-65
2021/11/26 18:34:04;;;;;;;;;;;1.30;99.90;;;;;;8371271;28;19995;-65
2021/11/26 18:38:08;;;;;;;;;;;1.30;99.90;;;;;;8372135;28;19952;-64
2021/11/26 18:42:09;;;;;;;;;;;1.30;99.90;;;;;;8353563;28;19965;-65
2021/11/26 18:46:09;;;;;;;;;;;1.30;99.90;;;;;;8372015;28;20382;-64
2021/11/26 18:50:10;;;;;;;;;;;1.40;99.90;;;;;;8369124;28;19912;-64
2021/11/26 18:54:15;;;;;;;;;;;1.40;99.90;;;;;;8355320;28;19919;-65
2021/11/26 18:58:15;;;;;;;;;;;1.30;99.90;;;;;;8373214;28;19913;-65
2021/11/26 19:02:16;;;;;;;;;;;1.30;99.90;;;;;;8371093;28;19924;-65
2021/11/26 19:06:16;;;;;;;;;;;1.30;99.90;;;;;;8375031;28;19923;-65
2021/11/26 19:10:18;;;;;;;;;;;1.20;99.90;;;;;;8377637;23;19951;-64
2021/11/26 19:14:19;;;;;;;;;;;1.20;99.90;;;;;;8393573;28;20337;-63
2021/11/26 19:18:19;;;;;;;;;;;1.30;99.90;;;;;;8394275;28;19966;-64
2021/11/26 19:22:25;;;;;;;;;;;1.40;99.90;;;;;;8376842;28;20026;-64
2021/11/26 19:26:25;;;;;;;;;;;1.30;99.90;;;;;;8379188;28;19917;-64
2021/11/26 19:30:27;;;;;;;;;;;1.30;99.90;;;;;;8369343;28;19919;-63
2021/11/26 19:34:28;;;;;;;;;;;1.30;99.90;;;;;;8375243;28;19931;-63
2021/11/26 19:38:28;;;;;;;;;;;1.20;99.90;;;;;;8378726;28;19963;-64
2021/11/26 19:42:29;;;;;;;;;;;1.20;99.90;;;;;;8376655;28;19917;-64
2021/11/26 19:46:29;;;;;;;;;;;1.20;99.90;;;;;;8370206;28;19913;-63
2021/11/26 19:50:30;;;;;;;;;;;1.30;99.90;;;;;;8373236;28;19917;-64
2021/11/26 19:54:30;;;;;;;;;;;1.20;99.90;;;;;;8377576;28;19917;-64
2021/11/26 19:58:31;;;;;;;;;;;1.20;99.90;;;;;;8377460;28;19913;-64
2021/11/26 20:02:32;;;;;;;;;;;1.20;99.90;;;;;;8357981;28;19924;-65
2021/11/26 20:06:37;;;;;;;;;;;1.20;99.90;;;;;;8369569;28;19908;-64
2021/11/26 20:10:38;;;;;;;;;;;1.20;99.90;;;;;;8351516;28;20034;-64
2021/11/26 20:14:39;;;;;;;;;;;1.20;99.90;;;;;;8371850;28;19960;-63
2021/11/26 20:18:39;;;;;;;;;;;1.20;99.90;;;;;;8373007;28;19917;-64
2021/11/26 20:22:41;;;;;;;;;;;1.20;99.90;;;;;;8378991;28;20038;-64
2021/11/26 20:26:41;;;;;;;;;;;1.30;99.90;;;;;;8376535;28;19995;-64
2021/11/26 20:30:42;;;;;;;;;;;1.30;99.90;;;;;;8373397;28;19912;-64
2021/11/26 20:34:43;;;;;;;;;;;1.30;99.90;;;;;;8374825;28;19916;-64
2021/11/26 20:38:44;;;;;;;;;;;1.30;99.90;;;;;;8390807;28;19916;-64
2021/11/26 20:42:45;;;;;;;;;;;1.20;99.90;;;;;;8376516;28;19913;-64
2021/11/26 20:46:46;;;;;;;;;;;1.30;99.90;;;;;;8358664;28;19951;-64
2021/11/26 20:50:47;;;;;;;;;;;1.30;99.90;;;;;;8371165;28;19926;-64
2021/11/26 20:54:49;;;;;;;;;;;1.30;99.90;;;;;;8381182;28;20358;-63
2021/11/26 20:58:49;;;;;;;;;;;1.40;99.90;;;;;;8366004;28;19991;-63
2021/11/26 21:02:50;;;;;;;;;;;1.40;99.90;;;;;;8377656;28;19927;-64
2021/11/26 21:06:51;;;;;;;;;;;1.40;99.90;;;;;;8360964;28;19961;-64
2021/11/26 21:10:53;;;;;;;;;;;1.40;99.90;;;;;;8377087;28;19917;-63
2021/11/26 21:14:55;;;;;;;;;;;1.50;99.90;;;;;;8357742;28;20286;-64
2021/11/26 21:18:56;;;;;;;;;;;1.50;99.90;;;;;;8359393;28;19923;-64
2021/11/26 21:22:56;;;;;;;;;;;1.50;99.90;;;;;;8368115;28;19917;-63
2021/11/26 21:26:57;;;;;;;;;;;1.50;99.90;;;;;;8370101;28;20014;-64
2021/11/26 21:30:57;;;;;;;;;;;1.50;99.90;;;;;;8356789;28;19920;-64
2021/11/26 21:34:58;;;;;;;;;;;1.50;99.90;;;;;;8373609;28;20367;-64
2021/11/26 21:39:01;;;;;;;;;;;1.50;99.90;;;;;;8374086;28;22556;-64
2021/11/26 21:43:01;;;;;;;;;;;1.50;99.90;;;;;;8374167;28;20006;-65
2021/11/26 21:47:03;;;;;;;;;;;1.40;99.90;;;;;;8374435;28;20130;-64
2021/11/26 21:51:03;;;;;;;;;;;1.40;99.90;;;;;;8374389;28;19915;-64
2021/11/26 21:55:06;;;;;;;;;;;1.60;99.90;;;;;;8372852;28;20003;-65
2021/11/26 21:59:06;;;;;;;;;;;1.60;99.90;;;;;;8370750;28;19908;-64
2021/11/26 22:03:09;;;;;;;;;;;1.50;99.90;;;;;;8355859;28;20337;-63
2021/11/26 22:07:10;;;;;;;;;;;1.50;99.90;;;;;;8372131;28;19995;-64
2021/11/26 22:11:11;;;;;;;;;;;1.50;99.90;;;;;;8373346;28;20539;-64
2021/11/26 22:15:14;;;;;;;;;;;1.50;99.90;;;;;;8359148;28;20330;-64
2021/11/26 22:19:15;;;;;;;;;;;1.50;99.90;;;;;;8373960;28;19928;-64
2021/11/26 22:23:15;;;;;;;;;;;1.50;99.90;;;;;;8382130;28;19978;-64
2021/11/26 22:27:16;;;;;;;;;;;1.50;99.90;;;;;;8373713;28;20003;-64
2021/11/26 22:31:17;;;;;;;;;;;1.50;99.90;;;;;;8393701;28;19915;-64
2021/11/26 22:35:17;;;;;;;;;;;1.60;99.90;;;;;;8393523;28;20432;-64
2021/11/26 22:39:18;;;;;;;;;;;1.60;99.90;;;;;;8375972;28;20365;-64
2021/11/26 22:43:19;;;;;;;;;;;1.60;99.90;;;;;;8393178;28;19919;-64
2021/11/26 22:47:20;;;;;;;;;;;1.60;99.90;;;;;;8392294;28;19916;-64
2021/11/26 22:51:21;;;;;;;;;;;1.60;99.90;;;;;;8393163;28;19913;-64
2021/11/26 22:55:21;;;;;;;;;;;1.70;99.90;;;;;;8384401;28;19944;-64
2021/11/26 22:59:21;;;;;;;;;;;1.70;99.90;;;;;;8374784;28;20525;-64
2021/11/26 23:03:24;;;;;;;;;;;1.60;99.90;;;;;;8393002;28;19921;-64
2021/11/26 23:07:25;;;;;;;;;;;1.60;99.90;;;;;;8393265;28;19909;-63
2021/11/26 23:11:29;;;;;;;;;;;1.60;99.90;;;;;;8392569;28;19916;-63
2021/11/26 23:15:30;;;;;;;;;;;1.70;99.90;;;;;;8393338;28;20306;-64
2021/11/26 23:19:31;;;;;;;;;;;1.60;99.90;;;;;;8393067;28;19913;-63
2021/11/26 23:23:31;;;;;;;;;;;1.70;99.90;;;;;;8383472;28;20011;-64
2021/11/26 23:27:32;;;;;;;;;;;1.70;99.90;;;;;;8392761;28;20366;-63
2021/11/26 23:31:33;;;;;;;;;;;1.70;99.90;;;;;;8392757;28;19908;-64
2021/11/26 23:35:34;;;;;;;;;;;1.70;99.90;;;;;;8374482;28;19958;-64
2021/11/26 23:39:34;;;;;;;;;;;1.70;99.90;;;;;;8392726;28;19979;-64
2021/11/26 23:43:35;;;;;;;;;;;1.70;99.90;;;;;;8392735;28;20441;-64
2021/11/26 23:47:36;;;;;;;;;;;1.70;99.90;;;;;;8392183;28;19909;-65
2021/11/26 23:51:38;;;;;;;;;;;1.70;99.90;;;;;;8374430;28;20306;-63
2021/11/26 23:55:38;;;;;;;;;;;1.70;99.90;;;;;;8383634;28;19909;-63